Saint-Philippe-De-Neri, Canada
Current Conditions -  °F | °C
As of 4:53 AM on Thursday 29 Jan 2015 (Local Time) from KFVE Reporting Station
Clear Clear  
Wind Chill: -24°   Ceiling: Unl
Heat Index: -17°   Visibility: 10mi
Dew Point: -19°   Wind: 8mph
Humidity: 83%   Direction: 250°WSW
Pressure: 30.15"   Gusts: NA
Location:  47.45°N, 69.88°W
Report Text: KFVE 290953Z AUTO 25007KT 10SM CLR M17/M19 A3015 RMK AO2 SLP234 T11671189
Loading
Personal Weather Stations






























Interactive Weather Map New forecast layout! Learn more

10-Day Weather Forecast

Advertisements
Track Severe Weather on mobile